createdAt,value
2024-02-08T00:00:11.401Z,9.14
2024-02-08T00:02:42.841Z,9.15
2024-02-08T00:05:11.645Z,9.16
2024-02-08T00:07:40.704Z,9.17
2024-02-08T00:10:10.224Z,9.16
2024-02-08T00:12:39.926Z,9.17
2024-02-08T00:15:10.758Z,9.16
2024-02-08T00:17:39.428Z,9.15
2024-02-08T00:20:09.472Z,9.16
2024-02-08T00:22:38.344Z,9.16
2024-02-08T00:25:07.321Z,9.18
2024-02-08T00:27:35.673Z,9.17
2024-02-08T00:30:04.584Z,9.18
2024-02-08T00:32:34.654Z,9.18
2024-02-08T00:35:07.858Z,9.18
2024-02-08T00:37:38.918Z,9.20
2024-02-08T00:40:09.426Z,9.20
2024-02-08T00:42:38.099Z,9.20
2024-02-08T00:45:07.676Z,9.21
2024-02-08T00:47:37.668Z,9.19
2024-02-08T00:50:07.294Z,9.04
2024-02-08T00:52:36.201Z,8.87
2024-02-08T00:55:05.169Z,8.70
2024-02-08T00:57:34.369Z,8.62
2024-02-08T01:00:03.215Z,8.52
2024-02-08T01:02:32.365Z,8.44
2024-02-08T01:05:03.110Z,8.38
2024-02-08T01:07:33.053Z,8.34
2024-02-08T01:10:02.343Z,8.28
2024-02-08T01:12:32.504Z,8.23
2024-02-08T01:15:01.405Z,8.16
2024-02-08T01:17:30.161Z,8.12
2024-02-08T01:20:02.768Z,8.08
2024-02-08T01:22:33.448Z,8.05
2024-02-08T01:25:02.131Z,8.05
2024-02-08T01:27:30.722Z,8.05
2024-02-08T01:30:01.368Z,8.05
2024-02-08T01:32:30.546Z,8.05
2024-02-08T01:34:59.840Z,8.02
2024-02-08T01:37:29.846Z,8.02
2024-02-08T01:40:00.952Z,8.00
2024-02-08T01:42:29.979Z,7.99
2024-02-08T01:45:32.563Z,7.95
2024-02-08T01:48:03.851Z,7.94
2024-02-08T01:50:37.104Z,7.92
2024-02-08T01:53:09.365Z,7.91
2024-02-08T01:55:40.348Z,7.92
2024-02-08T01:58:09.875Z,7.90
2024-02-08T02:00:39.468Z,7.90
2024-02-08T02:03:14.663Z,7.89
2024-02-08T02:05:44.139Z,7.89
2024-02-08T02:08:21.856Z,7.87
2024-02-08T02:11:32.146Z,7.82
2024-02-08T02:14:01.194Z,7.82
2024-02-08T02:16:29.855Z,7.79
2024-02-08T02:18:58.742Z,7.80
2024-02-08T02:21:29.301Z,7.83
2024-02-08T02:23:58.173Z,7.82
2024-02-08T02:26:28.047Z,7.83
2024-02-08T02:28:59.312Z,7.83
2024-02-08T02:31:28.830Z,7.85
2024-02-08T02:33:58.875Z,7.87
2024-02-08T02:36:28.971Z,7.90
2024-02-08T02:38:57.844Z,7.92
2024-02-08T02:41:29.229Z,7.94
2024-02-08T02:43:58.135Z,7.95
2024-02-08T02:46:28.714Z,7.99
2024-02-08T02:48:57.626Z,8.03
2024-02-08T02:51:27.716Z,8.07
2024-02-08T02:53:59.096Z,8.11
2024-02-08T02:56:29.162Z,8.14
2024-02-08T02:58:58.512Z,8.20
2024-02-08T03:01:28.113Z,8.26
2024-02-08T03:03:56.891Z,8.31
2024-02-08T03:06:27.804Z,8.39
2024-02-08T03:08:59.110Z,8.47
2024-02-08T03:11:27.917Z,8.56
2024-02-08T03:13:56.748Z,8.64
2024-02-08T03:16:29.512Z,8.71
2024-02-08T03:18:58.912Z,8.78
2024-02-08T03:21:28.702Z,8.86
2024-02-08T03:23:58.695Z,8.94
2024-02-08T03:26:27.317Z,9.02
2024-02-08T03:28:56.164Z,9.09
2024-02-08T03:31:27.501Z,9.13
2024-02-08T03:33:56.578Z,9.21
2024-02-08T03:36:25.561Z,9.25
2024-02-08T03:38:54.611Z,9.29
2024-02-08T03:41:27.330Z,9.34
2024-02-08T03:43:56.175Z,9.37
2024-02-08T03:46:27.673Z,9.39
2024-02-08T03:48:58.915Z,9.40
2024-02-08T03:51:31.608Z,9.40
2024-02-08T03:54:04.417Z,9.41
2024-02-08T03:56:38.489Z,9.41
2024-02-08T03:59:13.077Z,9.40
2024-02-08T04:01:44.596Z,9.41
2024-02-08T04:04:17.587Z,9.41
2024-02-08T04:07:02.542Z,9.42
2024-02-08T04:09:37.718Z,9.41
2024-02-08T04:12:25.900Z,9.41
2024-02-08T04:15:11.924Z,9.42
2024-02-08T04:17:58.196Z,9.43
2024-02-08T04:20:44.421Z,9.44
2024-02-08T04:23:34.154Z,9.44
2024-02-08T04:26:24.760Z,9.45
2024-02-08T04:29:13.188Z,9.45
2024-02-08T04:31:59.738Z,9.45
2024-02-08T04:34:46.134Z,9.46
2024-02-08T04:37:32.714Z,9.45
2024-02-08T04:40:19.407Z,9.43
2024-02-08T04:43:06.572Z,9.42
2024-02-08T04:45:53.700Z,9.40
2024-02-08T04:48:39.693Z,9.40
2024-02-08T04:51:29.300Z,9.42
2024-02-08T04:53:58.417Z,9.43
2024-02-08T04:56:29.743Z,9.45
2024-02-08T04:59:20.001Z,9.47
2024-02-08T05:01:50.569Z,9.46
2024-02-08T05:04:22.361Z,9.47
2024-02-08T05:06:51.889Z,9.48
2024-02-08T05:09:21.557Z,9.48
2024-02-08T05:11:51.152Z,9.47
2024-02-08T05:14:22.172Z,9.46
2024-02-08T05:16:55.586Z,9.45
2024-02-08T05:19:27.307Z,9.45
2024-02-08T05:22:00.143Z,9.45
2024-02-08T05:24:29.796Z,9.44
2024-02-08T05:26:58.723Z,9.28
2024-02-08T05:29:29.733Z,9.06
2024-02-08T05:32:00.118Z,8.88
2024-02-08T05:34:29.273Z,8.76
2024-02-08T05:37:02.433Z,8.69
2024-02-08T05:39:31.196Z,8.64
2024-02-08T05:42:00.572Z,8.61
2024-02-08T05:44:31.868Z,8.58
2024-02-08T05:47:10.418Z,8.53
2024-02-08T05:49:46.823Z,8.46
2024-02-08T05:52:16.360Z,8.41
2024-02-08T05:54:47.892Z,8.37
2024-02-08T05:57:17.102Z,8.32
2024-02-08T05:59:47.036Z,8.24
2024-02-08T06:02:25.054Z,8.14
2024-02-08T06:05:02.119Z,8.06
2024-02-08T06:07:36.150Z,8.00
2024-02-08T06:10:15.326Z,7.95
2024-02-08T06:12:46.278Z,7.90
2024-02-08T06:15:25.908Z,7.85
2024-02-08T06:18:00.632Z,7.81
2024-02-08T06:20:35.291Z,7.73
2024-02-08T06:23:18.076Z,7.64
2024-02-08T06:26:23.473Z,7.54
2024-02-08T06:28:54.685Z,7.49
2024-02-08T06:31:34.233Z,7.43
2024-02-08T06:34:28.867Z,7.40
2024-02-08T06:37:17.377Z,7.35
2024-02-08T06:39:57.130Z,7.29
2024-02-08T06:43:06.350Z,7.24
2024-02-08T06:45:54.645Z,7.19
2024-02-08T06:48:42.679Z,7.16
2024-02-08T06:51:44.941Z,7.10
2024-02-08T06:54:31.893Z,7.00
2024-02-08T06:57:19.364Z,6.92
2024-02-08T07:00:05.701Z,6.83
2024-02-08T07:02:52.195Z,6.76
2024-02-08T07:05:39.350Z,6.71
2024-02-08T07:08:27.239Z,6.68
2024-02-08T07:11:14.511Z,6.67
2024-02-08T07:14:00.461Z,6.68
2024-02-08T07:16:46.721Z,6.66
2024-02-08T07:19:33.089Z,6.65
2024-02-08T07:22:19.253Z,6.62
2024-02-08T07:25:06.582Z,6.61
2024-02-08T07:27:52.848Z,6.56
2024-02-08T07:30:39.143Z,6.56
2024-02-08T07:33:25.282Z,6.57
2024-02-08T07:36:11.317Z,6.57
2024-02-08T07:38:53.853Z,6.60
2024-02-08T07:41:25.352Z,6.62
2024-02-08T07:43:56.777Z,6.62
2024-02-08T07:46:31.223Z,6.63
2024-02-08T07:49:06.699Z,6.63
2024-02-08T07:51:35.942Z,6.63
2024-02-08T07:54:11.705Z,6.64
2024-02-08T07:56:48.471Z,6.67
2024-02-08T07:59:27.694Z,6.68
2024-02-08T08:01:58.914Z,6.70
2024-02-08T08:04:52.810Z,6.72
2024-02-08T08:07:25.532Z,6.74
2024-02-08T08:10:01.367Z,6.76
2024-02-08T08:12:33.179Z,6.79
2024-02-08T08:15:14.822Z,6.85
2024-02-08T08:17:44.778Z,6.89
2024-02-08T08:20:48.120Z,6.95
2024-02-08T08:23:27.031Z,7.00
2024-02-08T08:26:22.950Z,7.04
2024-02-08T08:28:54.708Z,7.11
2024-02-08T08:31:39.355Z,7.15
2024-02-08T08:34:24.778Z,7.19
2024-02-08T08:37:03.617Z,7.20
2024-02-08T08:40:22.191Z,7.21
2024-02-08T08:42:55.928Z,7.24
2024-02-08T08:45:26.368Z,7.28
2024-02-08T08:48:02.062Z,7.34
2024-02-08T08:50:32.288Z,7.40
2024-02-08T08:53:08.687Z,7.44
2024-02-08T08:55:40.848Z,7.49
2024-02-08T08:58:13.688Z,7.54
2024-02-08T09:00:48.125Z,7.57
2024-02-08T09:03:27.463Z,7.61
2024-02-08T09:05:58.398Z,7.65
2024-02-08T09:08:35.201Z,7.67
2024-02-08T09:11:05.270Z,7.60
2024-02-08T09:13:38.568Z,7.56
2024-02-08T09:16:23.639Z,7.55
2024-02-08T09:19:13.733Z,7.51
2024-02-08T09:21:43.256Z,7.48
2024-02-08T09:24:19.105Z,7.46
2024-02-08T09:26:53.596Z,7.41
2024-02-08T09:29:29.963Z,7.37
2024-02-08T09:32:17.184Z,7.32
2024-02-08T09:34:47.653Z,7.35
2024-02-08T09:37:17.040Z,7.37
2024-02-08T09:39:55.255Z,7.42
2024-02-08T09:42:27.989Z,7.44
2024-02-08T09:45:14.772Z,7.45
2024-02-08T09:47:53.284Z,7.47
2024-02-08T09:50:32.647Z,7.53
2024-02-08T09:53:08.730Z,7.56
2024-02-08T09:55:39.933Z,7.62
2024-02-08T09:58:11.874Z,7.68
2024-02-08T10:00:56.166Z,7.71
2024-02-08T10:03:34.095Z,7.70
2024-02-08T10:06:13.788Z,7.74
2024-02-08T10:08:52.611Z,7.81
2024-02-08T10:11:28.378Z,7.87
2024-02-08T10:14:02.728Z,7.92
2024-02-08T10:16:43.565Z,7.94
2024-02-08T10:19:30.133Z,7.99
2024-02-08T10:22:01.776Z,8.04
2024-02-08T10:24:50.523Z,8.12
2024-02-08T10:27:21.595Z,8.21
2024-02-08T10:29:59.941Z,8.29
2024-02-08T10:32:29.003Z,8.39
2024-02-08T10:35:15.200Z,8.49
2024-02-08T10:37:55.165Z,8.63
2024-02-08T10:40:34.331Z,8.85
2024-02-08T10:43:17.904Z,9.07
2024-02-08T10:45:55.549Z,9.31
2024-02-08T10:48:29.970Z,9.52
2024-02-08T10:51:03.485Z,9.69
2024-02-08T10:53:50.764Z,9.82
2024-02-08T10:56:25.082Z,9.92
2024-02-08T10:58:56.646Z,10.00
2024-02-08T11:01:38.877Z,10.06
2024-02-08T11:04:18.473Z,10.15
2024-02-08T11:06:59.669Z,10.19
2024-02-08T11:09:28.625Z,10.24
2024-02-08T11:12:06.845Z,10.28
2024-02-08T11:14:42.521Z,10.32
2024-02-08T11:17:21.450Z,10.35
2024-02-08T11:19:57.789Z,10.38
2024-02-08T11:22:41.821Z,10.41
2024-02-08T11:25:21.598Z,10.42
2024-02-08T11:27:51.767Z,10.44
2024-02-08T11:30:34.323Z,10.46
2024-02-08T11:33:04.746Z,10.47
2024-02-08T11:35:36.292Z,10.49
2024-02-08T11:38:17.111Z,10.50
2024-02-08T11:40:49.839Z,10.52
2024-02-08T11:43:25.222Z,10.53
2024-02-08T11:45:58.472Z,10.55
2024-02-08T11:48:28.732Z,10.57
2024-02-08T11:51:00.034Z,10.58
2024-02-08T11:53:34.524Z,10.58
2024-02-08T11:56:09.020Z,10.59
2024-02-08T11:58:41.537Z,10.59
2024-02-08T12:01:14.587Z,10.59
2024-02-08T12:03:44.124Z,10.59
2024-02-08T12:06:24.159Z,10.60
2024-02-08T12:08:58.874Z,10.62
2024-02-08T12:11:30.868Z,10.63
2024-02-08T12:14:10.430Z,10.64
2024-02-08T12:16:52.296Z,10.66
2024-02-08T12:19:22.764Z,10.68
2024-02-08T12:21:57.790Z,10.71
2024-02-08T12:24:33.036Z,10.73
2024-02-08T12:27:12.880Z,10.77
2024-02-08T12:29:46.906Z,10.79
2024-02-08T12:32:18.754Z,10.83
2024-02-08T12:34:49.547Z,10.86
2024-02-08T12:37:23.901Z,10.89
2024-02-08T12:39:55.311Z,10.90
2024-02-08T12:42:25.637Z,10.91
2024-02-08T12:44:57.545Z,10.91
2024-02-08T12:47:27.236Z,10.92
2024-02-08T12:50:00.355Z,10.93
2024-02-08T12:52:34.286Z,10.93
2024-02-08T12:55:04.905Z,10.94
2024-02-08T12:57:37.730Z,10.96
2024-02-08T13:00:09.278Z,11.00
2024-02-08T13:02:39.916Z,11.04
2024-02-08T13:05:09.338Z,11.08
2024-02-08T13:07:39.212Z,11.12
2024-02-08T13:10:16.178Z,11.16
2024-02-08T13:12:47.176Z,11.22
2024-02-08T13:15:23.724Z,11.28
2024-02-08T13:17:53.100Z,11.39
2024-02-08T13:20:25.082Z,11.51
2024-02-08T13:22:56.051Z,11.60
2024-02-08T13:25:29.607Z,11.68
2024-02-08T13:27:59.797Z,11.74
2024-02-08T13:30:31.046Z,11.81
2024-02-08T13:33:00.566Z,11.85
2024-02-08T13:35:30.031Z,11.90
2024-02-08T13:38:02.660Z,11.96
2024-02-08T13:40:32.909Z,11.99
2024-02-08T13:43:01.936Z,12.01
2024-02-08T13:45:34.020Z,12.03
2024-02-08T13:48:04.944Z,12.04
2024-02-08T13:50:34.655Z,12.03
2024-02-08T13:53:05.069Z,12.05
2024-02-08T13:55:46.243Z,12.06
2024-02-08T13:58:23.139Z,12.07
2024-02-08T14:00:56.100Z,12.09
2024-02-08T14:03:27.883Z,12.10
2024-02-08T14:05:57.361Z,12.13
2024-02-08T14:08:29.390Z,12.21
2024-02-08T14:11:00.768Z,12.24
2024-02-08T14:13:36.618Z,12.26
2024-02-08T14:16:16.208Z,12.26
2024-02-08T14:18:51.780Z,12.26
2024-02-08T14:21:27.073Z,12.28
2024-02-08T14:24:02.017Z,12.26
2024-02-08T14:26:39.104Z,12.28
2024-02-08T14:29:09.521Z,12.30
2024-02-08T14:31:40.663Z,12.32
2024-02-08T14:34:12.536Z,12.34
2024-02-08T14:36:48.076Z,12.34
2024-02-08T14:39:30.797Z,12.34
2024-02-08T14:42:02.380Z,12.33
2024-02-08T14:44:42.127Z,12.34
2024-02-08T14:47:16.892Z,12.36
2024-02-08T14:50:00.277Z,12.37
2024-02-08T14:52:37.197Z,12.38
2024-02-08T14:55:24.148Z,12.36
2024-02-08T14:58:00.971Z,12.34
2024-02-08T15:00:48.068Z,12.32
2024-02-08T15:03:29.372Z,12.28
2024-02-08T15:06:07.073Z,12.30
2024-02-08T15:08:47.386Z,12.30
2024-02-08T15:11:39.636Z,12.30
2024-02-08T15:14:17.926Z,12.30
2024-02-08T15:16:47.982Z,12.29
2024-02-08T15:19:20.865Z,12.29
2024-02-08T15:21:54.129Z,12.29
2024-02-08T15:24:23.113Z,12.30
2024-02-08T15:27:06.638Z,12.31
2024-02-08T15:29:37.868Z,12.30
2024-02-08T15:32:11.845Z,12.30
2024-02-08T15:34:48.221Z,12.30
2024-02-08T15:37:21.662Z,12.30
2024-02-08T15:40:10.952Z,12.30
2024-02-08T15:42:44.476Z,12.31
2024-02-08T15:45:22.529Z,12.31
2024-02-08T15:48:02.151Z,12.31
2024-02-08T15:50:37.533Z,12.29
2024-02-08T15:53:17.685Z,12.28
2024-02-08T15:55:50.832Z,12.27
2024-02-08T15:58:21.340Z,12.26
2024-02-08T16:01:09.276Z,12.23
2024-02-08T16:03:43.782Z,12.17
2024-02-08T16:06:26.667Z,12.13
2024-02-08T16:08:58.548Z,12.12
2024-02-08T16:11:31.221Z,12.09
2024-02-08T16:14:04.682Z,12.10
2024-02-08T16:16:35.887Z,12.08
2024-02-08T16:19:18.680Z,12.07
2024-02-08T16:21:47.471Z,12.06
2024-02-08T16:24:19.317Z,12.06
2024-02-08T16:26:54.387Z,12.04
2024-02-08T16:29:35.254Z,12.04
2024-02-08T16:32:20.941Z,12.04
2024-02-08T16:34:54.685Z,12.03
2024-02-08T16:37:44.616Z,12.03
2024-02-08T16:40:18.512Z,12.01
2024-02-08T16:42:53.466Z,12.02
2024-02-08T16:45:35.164Z,11.97
2024-02-08T16:48:15.279Z,11.99
2024-02-08T16:50:47.449Z,12.00
2024-02-08T16:53:20.276Z,12.02
2024-02-08T16:55:57.796Z,12.03
2024-02-08T16:58:39.345Z,12.04
2024-02-08T17:01:23.075Z,12.08
2024-02-08T17:04:02.038Z,12.09
2024-02-08T17:06:35.161Z,12.10
2024-02-08T17:09:17.111Z,12.10
2024-02-08T17:11:50.187Z,12.12
2024-02-08T17:14:34.137Z,12.13
2024-02-08T17:17:14.275Z,12.14
2024-02-08T17:19:53.335Z,12.19
2024-02-08T17:22:50.346Z,12.25
2024-02-08T17:25:26.592Z,12.28
2024-02-08T17:28:07.734Z,12.31
2024-02-08T17:31:05.194Z,12.32
2024-02-08T17:33:40.951Z,12.31
2024-02-08T17:36:14.589Z,12.32
2024-02-08T17:38:44.700Z,12.32
2024-02-08T17:41:20.303Z,12.33
2024-02-08T17:43:56.345Z,12.34
2024-02-08T17:46:26.144Z,12.33
2024-02-08T17:48:56.706Z,12.30
2024-02-08T17:51:39.885Z,12.33
2024-02-08T17:54:09.577Z,12.30
2024-02-08T17:56:43.210Z,12.29
2024-02-08T17:59:17.349Z,12.25
2024-02-08T18:01:57.277Z,12.23
2024-02-08T18:04:29.277Z,12.21
2024-02-08T18:07:11.047Z,12.18
2024-02-08T18:09:43.391Z,12.16
2024-02-08T18:12:23.807Z,12.13
2024-02-08T18:14:57.252Z,12.13
2024-02-08T18:17:26.442Z,12.12
2024-02-08T18:19:56.040Z,12.09
2024-02-08T18:22:31.516Z,12.09
2024-02-08T18:25:01.487Z,12.08
2024-02-08T18:27:33.824Z,12.07
2024-02-08T18:30:05.866Z,12.08
2024-02-08T18:32:36.033Z,12.09
2024-02-08T18:35:08.375Z,12.08
2024-02-08T18:37:39.424Z,12.08
2024-02-08T18:40:18.267Z,12.08
2024-02-08T18:42:48.289Z,12.08
2024-02-08T18:45:18.040Z,12.11
2024-02-08T18:47:51.337Z,12.12
2024-02-08T18:50:25.596Z,12.13
2024-02-08T18:52:56.217Z,12.14
2024-02-08T18:55:46.330Z,12.16
2024-02-08T18:58:18.283Z,12.16
2024-02-08T19:00:50.643Z,12.17
2024-02-08T19:03:21.791Z,12.18
2024-02-08T19:05:51.425Z,12.20
2024-02-08T19:08:21.654Z,12.22
2024-02-08T19:10:58.672Z,12.24
2024-02-08T19:13:28.697Z,12.26
2024-02-08T19:15:59.554Z,12.26
2024-02-08T19:18:33.565Z,12.28
2024-02-08T19:21:03.003Z,12.29
2024-02-08T19:23:35.389Z,12.29
2024-02-08T19:26:09.486Z,12.29
2024-02-08T19:28:38.375Z,12.29
2024-02-08T19:31:10.750Z,12.31
2024-02-08T19:33:43.121Z,12.33
2024-02-08T19:36:14.877Z,12.33
2024-02-08T19:38:46.083Z,12.33
2024-02-08T19:41:16.564Z,12.32
2024-02-08T19:43:46.913Z,12.32
2024-02-08T19:46:18.553Z,12.31
2024-02-08T19:48:53.464Z,12.30
2024-02-08T19:51:26.269Z,12.31
2024-02-08T19:53:57.095Z,12.32
2024-02-08T19:56:27.429Z,12.33
2024-02-08T19:58:59.537Z,12.36
2024-02-08T20:01:29.194Z,12.39
2024-02-08T20:04:02.385Z,12.40
2024-02-08T20:06:31.478Z,12.40
2024-02-08T20:09:01.502Z,12.42
2024-02-08T20:11:30.293Z,12.41
2024-02-08T20:14:00.169Z,12.40
2024-02-08T20:16:32.406Z,12.40
2024-02-08T20:19:02.438Z,12.39
2024-02-08T20:21:32.789Z,12.39
2024-02-08T20:24:03.585Z,12.37
2024-02-08T20:26:32.222Z,12.34
2024-02-08T20:29:05.970Z,12.29
2024-02-08T20:31:36.230Z,12.21
2024-02-08T20:34:06.636Z,12.12
2024-02-08T20:36:35.063Z,12.01
2024-02-08T20:39:18.994Z,11.92
2024-02-08T20:41:50.618Z,11.83
2024-02-08T20:44:23.107Z,11.77
2024-02-08T20:46:57.604Z,11.70
2024-02-08T20:49:29.379Z,11.65
2024-02-08T20:52:00.440Z,11.61
2024-02-08T20:54:33.344Z,11.58
2024-02-08T20:57:03.764Z,11.56
2024-02-08T20:59:36.019Z,11.54
2024-02-08T21:02:04.971Z,11.52
2024-02-08T21:04:34.363Z,11.51
2024-02-08T21:07:03.081Z,11.49
2024-02-08T21:09:33.349Z,11.50
2024-02-08T21:12:06.521Z,11.48
2024-02-08T21:14:35.330Z,11.47
2024-02-08T21:17:04.408Z,11.48
2024-02-08T21:19:34.394Z,11.46
2024-02-08T21:22:03.485Z,11.44
2024-02-08T21:24:33.472Z,11.42
2024-02-08T21:27:02.364Z,11.39
2024-02-08T21:29:38.003Z,11.37
2024-02-08T21:32:07.452Z,11.35
2024-02-08T21:34:36.425Z,11.33
2024-02-08T21:37:08.143Z,11.32
2024-02-08T21:39:38.972Z,11.30
2024-02-08T21:42:08.507Z,11.30
2024-02-08T21:44:39.586Z,11.28
2024-02-08T21:47:08.617Z,11.28
2024-02-08T21:49:37.316Z,11.27
2024-02-08T21:52:08.548Z,11.26
2024-02-08T21:54:40.059Z,11.26
2024-02-08T21:57:09.196Z,11.26
2024-02-08T21:59:38.086Z,11.25
2024-02-08T22:02:09.189Z,11.25
2024-02-08T22:04:38.952Z,11.25
2024-02-08T22:07:08.076Z,11.25
2024-02-08T22:09:38.092Z,11.26
2024-02-08T22:12:07.161Z,11.26
2024-02-08T22:14:40.492Z,11.26
2024-02-08T22:17:10.771Z,11.25
2024-02-08T22:19:44.377Z,11.25
2024-02-08T22:22:14.445Z,11.24
2024-02-08T22:24:44.176Z,11.25
2024-02-08T22:27:12.493Z,11.26
2024-02-08T22:29:41.235Z,11.27
2024-02-08T22:32:12.655Z,11.28
2024-02-08T22:34:42.648Z,11.31
2024-02-08T22:37:11.785Z,11.33
2024-02-08T22:39:40.506Z,11.35
2024-02-08T22:42:11.142Z,11.36
2024-02-08T22:44:40.143Z,11.36
2024-02-08T22:47:08.960Z,11.37
2024-02-08T22:49:37.812Z,11.38
2024-02-08T22:52:07.345Z,11.38
2024-02-08T22:54:36.152Z,11.39
2024-02-08T22:57:04.844Z,11.39
2024-02-08T22:59:34.926Z,11.39
2024-02-08T23:02:08.151Z,11.38
2024-02-08T23:04:38.982Z,11.40
2024-02-08T23:07:08.945Z,11.41
2024-02-08T23:09:37.675Z,11.44
2024-02-08T23:12:08.166Z,11.47
2024-02-08T23:14:38.206Z,11.47
2024-02-08T23:17:08.085Z,11.48
2024-02-08T23:19:36.771Z,11.50
2024-02-08T23:22:06.816Z,11.51
2024-02-08T23:24:41.630Z,11.52
2024-02-08T23:27:10.904Z,11.48
2024-02-08T23:29:42.206Z,11.49
2024-02-08T23:32:12.123Z,11.51
2024-02-08T23:34:42.071Z,11.55
2024-02-08T23:37:12.361Z,11.54
2024-02-08T23:39:41.300Z,11.54
2024-02-08T23:42:10.313Z,11.52
2024-02-08T23:44:41.354Z,11.50
2024-02-08T23:47:18.516Z,11.49
2024-02-08T23:49:47.272Z,11.49
2024-02-08T23:52:17.193Z,11.49
2024-02-08T23:54:49.105Z,11.48
2024-02-08T23:57:19.377Z,11.47
2024-02-08T23:59:51.388Z,11.46
